sensor_id;sensor_type;location;lat;lon;timestamp;pressure;altitude;pressure_sealevel;temperature;humidity
45467;BME280;31212;49.734;8.490;2023-07-02T00:00:44;99645.66;;;16.91;72.58
45467;BME280;31212;49.734;8.490;2023-07-02T00:03:10;99639.47;;;16.94;72.65
45467;BME280;31212;49.734;8.490;2023-07-02T00:05:36;99631.53;;;16.95;72.75
45467;BME280;31212;49.734;8.490;2023-07-02T00:08:03;99640.47;;;16.90;72.93
45467;BME280;31212;49.734;8.490;2023-07-02T00:10:30;99621.41;;;16.85;72.22
45467;BME280;31212;49.734;8.490;2023-07-02T00:12:57;99625.09;;;16.79;72.35
45467;BME280;31212;49.734;8.490;2023-07-02T00:15:24;99635.97;;;16.67;72.58
45467;BME280;31212;49.734;8.490;2023-07-02T00:17:50;99654.38;;;16.65;72.98
45467;BME280;31212;49.734;8.490;2023-07-02T00:20:17;99679.16;;;16.56;72.85
45467;BME280;31212;49.734;8.490;2023-07-02T00:22:45;99673.34;;;16.46;73.03
45467;BME280;31212;49.734;8.490;2023-07-02T00:25:13;99687.78;;;16.31;73.36
45467;BME280;31212;49.734;8.490;2023-07-02T00:27:39;99715.25;;;16.20;74.04
45467;BME280;31212;49.734;8.490;2023-07-02T00:30:08;99734.81;;;16.08;74.72
45467;BME280;31212;49.734;8.490;2023-07-02T00:32:35;99746.50;;;15.96;75.15
45467;BME280;31212;49.734;8.490;2023-07-02T00:35:01;99760.53;;;15.93;75.50
45467;BME280;31212;49.734;8.490;2023-07-02T00:37:28;99774.63;;;15.89;76.09
45467;BME280;31212;49.734;8.490;2023-07-02T00:39:54;99773.94;;;15.83;76.24
45467;BME280;31212;49.734;8.490;2023-07-02T00:42:21;99779.28;;;15.78;76.40
45467;BME280;31212;49.734;8.490;2023-07-02T00:44:48;99783.56;;;15.82;76.12
45467;BME280;31212;49.734;8.490;2023-07-02T00:47:19;99769.53;;;15.85;76.23
45467;BME280;31212;49.734;8.490;2023-07-02T00:49:45;99763.16;;;15.93;76.11
45467;BME280;31212;49.734;8.490;2023-07-02T00:52:11;99759.59;;;15.96;75.89
45467;BME280;31212;49.734;8.490;2023-07-02T00:54:38;99739.16;;;16.09;75.18
45467;BME280;31212;49.734;8.490;2023-07-02T00:57:06;99720.56;;;16.17;74.35
45467;BME280;31212;49.734;8.490;2023-07-02T00:59:33;99703.97;;;16.18;73.87
45467;BME280;31212;49.734;8.490;2023-07-02T01:02:01;99690.81;;;16.19;73.72
45467;BME280;31212;49.734;8.490;2023-07-02T01:04:29;99690.88;;;16.18;73.63
45467;BME280;31212;49.734;8.490;2023-07-02T01:06:56;99687.53;;;16.12;73.58
45467;BME280;31212;49.734;8.490;2023-07-02T01:09:24;99684.16;;;16.09;73.21
45467;BME280;31212;49.734;8.490;2023-07-02T01:11:54;99698.25;;;16.05;72.99
45467;BME280;31212;49.734;8.490;2023-07-02T01:14:25;99685.34;;;15.98;73.35
45467;BME280;31212;49.734;8.490;2023-07-02T01:16:54;99692.69;;;15.87;73.20
45467;BME280;31212;49.734;8.490;2023-07-02T01:19:21;99711.38;;;15.73;73.54
45467;BME280;31212;49.734;8.490;2023-07-02T01:21:52;99717.81;;;15.61;74.45
45467;BME280;31212;49.734;8.490;2023-07-02T01:24:19;99726.69;;;15.56;74.10
45467;BME280;31212;49.734;8.490;2023-07-02T01:26:46;99729.41;;;15.53;74.57
45467;BME280;31212;49.734;8.490;2023-07-02T01:29:15;99735.72;;;15.44;74.62
45467;BME280;31212;49.734;8.490;2023-07-02T01:31:41;99720.91;;;15.44;74.48
45467;BME280;31212;49.734;8.490;2023-07-02T01:34:08;99720.28;;;15.36;74.57
45467;BME280;31212;49.734;8.490;2023-07-02T01:36:35;99703.72;;;15.36;74.08
45467;BME280;31212;49.734;8.490;2023-07-02T01:39:03;99640.78;;;15.42;72.41
45467;BME280;31212;49.734;8.490;2023-07-02T01:41:33;99615.41;;;15.45;71.45
45467;BME280;31212;49.734;8.490;2023-07-02T01:43:59;99601.44;;;15.45;71.02
45467;BME280;31212;49.734;8.490;2023-07-02T01:46:26;99596.41;;;15.39;70.69
45467;BME280;31212;49.734;8.490;2023-07-02T01:48:52;99600.69;;;15.41;70.65
45467;BME280;31212;49.734;8.490;2023-07-02T01:51:19;99587.56;;;15.43;70.28
45467;BME280;31212;49.734;8.490;2023-07-02T01:53:45;99605.28;;;15.33;70.90
45467;BME280;31212;49.734;8.490;2023-07-02T01:56:13;99630.56;;;15.33;70.94
45467;BME280;31212;49.734;8.490;2023-07-02T01:58:39;99642.88;;;15.29;71.54
45467;BME280;31212;49.734;8.490;2023-07-02T02:01:06;99656.00;;;15.27;71.59
45467;BME280;31212;49.734;8.490;2023-07-02T02:03:33;99665.41;;;15.33;71.40
45467;BME280;31212;49.734;8.490;2023-07-02T02:05:59;99677.69;;;15.31;71.63
45467;BME280;31212;49.734;8.490;2023-07-02T02:08:25;99681.31;;;15.27;72.03
45467;BME280;31212;49.734;8.490;2023-07-02T02:10:52;99689.25;;;15.24;72.61
45467;BME280;31212;49.734;8.490;2023-07-02T02:13:20;99713.91;;;15.13;73.09
45467;BME280;31212;49.734;8.490;2023-07-02T02:15:46;99734.81;;;15.13;73.11
45467;BME280;31212;49.734;8.490;2023-07-02T02:18:13;99754.91;;;15.11;74.02
45467;BME280;31212;49.734;8.490;2023-07-02T02:20:39;99769.03;;;15.04;74.49
45467;BME280;31212;49.734;8.490;2023-07-02T02:23:06;99783.06;;;15.02;75.16
45467;BME280;31212;49.734;8.490;2023-07-02T02:25:33;99784.81;;;15.01;74.91
45467;BME280;31212;49.734;8.490;2023-07-02T02:28:01;99767.47;;;14.99;74.92
45467;BME280;31212;49.734;8.490;2023-07-02T02:30:29;99731.59;;;15.04;74.03
45467;BME280;31212;49.734;8.490;2023-07-02T02:32:56;99721.06;;;15.07;73.38
45467;BME280;31212;49.734;8.490;2023-07-02T02:35:25;99708.00;;;15.07;73.00
45467;BME280;31212;49.734;8.490;2023-07-02T02:37:51;99713.22;;;15.07;73.09
45467;BME280;31212;49.734;8.490;2023-07-02T02:40:18;99713.97;;;15.12;73.02
45467;BME280;31212;49.734;8.490;2023-07-02T02:42:44;99714.47;;;15.25;72.83
45467;BME280;31212;49.734;8.490;2023-07-02T02:45:11;99727.44;;;15.29;73.19
45467;BME280;31212;49.734;8.490;2023-07-02T02:47:39;99745.13;;;15.20;73.65
45467;BME280;31212;49.734;8.490;2023-07-02T02:50:06;99748.47;;;15.25;73.56
45467;BME280;31212;49.734;8.490;2023-07-02T02:52:34;99757.84;;;15.34;73.81
45467;BME280;31212;49.734;8.490;2023-07-02T02:55:01;99729.84;;;15.37;72.82
45467;BME280;31212;49.734;8.490;2023-07-02T02:57:27;99713.41;;;15.32;72.79
45467;BME280;31212;49.734;8.490;2023-07-02T02:59:54;99695.88;;;15.36;71.96
45467;BME280;31212;49.734;8.490;2023-07-02T03:02:20;99667.06;;;15.37;71.06
45467;BME280;31212;49.734;8.490;2023-07-02T03:04:48;99652.31;;;15.35;70.77
45467;BME280;31212;49.734;8.490;2023-07-02T03:07:14;99620.22;;;15.29;69.92
45467;BME280;31212;49.734;8.490;2023-07-02T03:09:41;99610.56;;;15.31;70.13
45467;BME280;31212;49.734;8.490;2023-07-02T03:12:08;99618.50;;;15.28;70.12
45467;BME280;31212;49.734;8.490;2023-07-02T03:14:34;99624.81;;;15.21;70.21
45467;BME280;31212;49.734;8.490;2023-07-02T03:17:01;99630.16;;;15.17;70.25
45467;BME280;31212;49.734;8.490;2023-07-02T03:19:28;99647.03;;;15.06;70.45
45467;BME280;31212;49.734;8.490;2023-07-02T03:21:56;99676.78;;;15.01;71.13
45467;BME280;31212;49.734;8.490;2023-07-02T03:24:22;99696.09;;;14.95;71.82
45467;BME280;31212;49.734;8.490;2023-07-02T03:26:49;99719.72;;;14.92;72.42
45467;BME280;31212;49.734;8.490;2023-07-02T03:29:15;99723.13;;;14.94;72.60
45467;BME280;31212;49.734;8.490;2023-07-02T03:31:44;99743.94;;;14.99;73.05
45467;BME280;31212;49.734;8.490;2023-07-02T03:34:11;99745.84;;;14.92;73.14
45467;BME280;31212;49.734;8.490;2023-07-02T03:36:38;99754.66;;;14.88;73.45
45467;BME280;31212;49.734;8.490;2023-07-02T03:39:06;99758.13;;;14.88;73.44
45467;BME280;31212;49.734;8.490;2023-07-02T03:41:32;99755.44;;;14.91;73.23
45467;BME280;31212;49.734;8.490;2023-07-02T03:43:59;99745.25;;;14.80;73.40
45467;BME280;31212;49.734;8.490;2023-07-02T03:46:25;99767.28;;;14.70;73.68
45467;BME280;31212;49.734;8.490;2023-07-02T03:48:51;99764.81;;;14.64;73.74
45467;BME280;31212;49.734;8.490;2023-07-02T03:51:18;99775.31;;;14.61;73.74
45467;BME280;31212;49.734;8.490;2023-07-02T03:53:44;99769.25;;;14.59;73.74
45467;BME280;31212;49.734;8.490;2023-07-02T03:56:12;99781.44;;;14.58;73.65
45467;BME280;31212;49.734;8.490;2023-07-02T03:58:39;99788.66;;;14.49;73.99
45467;BME280;31212;49.734;8.490;2023-07-02T04:01:06;99802.63;;;14.46;74.38
45467;BME280;31212;49.734;8.490;2023-07-02T04:03:32;99806.09;;;14.46;74.48
45467;BME280;31212;49.734;8.490;2023-07-02T04:05:59;99817.47;;;14.45;74.62
45467;BME280;31212;49.734;8.490;2023-07-02T04:08:26;99819.16;;;14.46;74.69
45467;BME280;31212;49.734;8.490;2023-07-02T04:10:53;99826.81;;;14.54;74.78
45467;BME280;31212;49.734;8.490;2023-07-02T04:13:21;99823.97;;;14.67;74.38
45467;BME280;31212;49.734;8.490;2023-07-02T04:15:47;99820.22;;;14.78;74.63
45467;BME280;31212;49.734;8.490;2023-07-02T04:18:14;99819.88;;;14.92;73.93
45467;BME280;31212;49.734;8.490;2023-07-02T04:20:40;99809.16;;;15.03;73.46
45467;BME280;31212;49.734;8.490;2023-07-02T04:23:07;99806.31;;;15.12;73.28
45467;BME280;31212;49.734;8.490;2023-07-02T04:25:33;99806.22;;;15.17;73.41
45467;BME280;31212;49.734;8.490;2023-07-02T04:28:00;99794.34;;;15.37;72.82
45467;BME280;31212;49.734;8.490;2023-07-02T04:30:28;99774.88;;;15.48;72.48
45467;BME280;31212;49.734;8.490;2023-07-02T04:32:54;99786.03;;;15.55;72.34
45467;BME280;31212;49.734;8.490;2023-07-02T04:35:20;99789.31;;;15.62;72.31
45467;BME280;31212;49.734;8.490;2023-07-02T04:37:47;99766.25;;;15.76;71.77
45467;BME280;31212;49.734;8.490;2023-07-02T04:40:13;99758.19;;;15.84;71.96
45467;BME280;31212;49.734;8.490;2023-07-02T04:42:41;99760.44;;;15.96;71.14
45467;BME280;31212;49.734;8.490;2023-07-02T04:45:13;99748.19;;;15.98;71.04
45467;BME280;31212;49.734;8.490;2023-07-02T04:47:42;99719.22;;;16.03;70.68
45467;BME280;31212;49.734;8.490;2023-07-02T04:50:09;99732.00;;;16.14;70.15
45467;BME280;31212;49.734;8.490;2023-07-02T04:52:35;99694.38;;;16.17;69.57
45467;BME280;31212;49.734;8.490;2023-07-02T04:55:02;99689.72;;;16.26;69.53
45467;BME280;31212;49.734;8.490;2023-07-02T04:57:28;99671.13;;;16.34;68.84
45467;BME280;31212;49.734;8.490;2023-07-02T04:59:55;99668.88;;;16.50;68.75
45467;BME280;31212;49.734;8.490;2023-07-02T05:02:21;99657.44;;;16.53;68.18
45467;BME280;31212;49.734;8.490;2023-07-02T05:04:49;99662.78;;;16.50;68.25
45467;BME280;31212;49.734;8.490;2023-07-02T05:07:16;99667.97;;;16.51;68.03
45467;BME280;31212;49.734;8.490;2023-07-02T05:09:42;99672.09;;;16.58;68.05
45467;BME280;31212;49.734;8.490;2023-07-02T05:12:09;99678.88;;;16.64;68.04
45467;BME280;31212;49.734;8.490;2023-07-02T05:14:35;99686.28;;;16.78;67.65
45467;BME280;31212;49.734;8.490;2023-07-02T05:17:03;99666.88;;;16.84;67.46
45467;BME280;31212;49.734;8.490;2023-07-02T05:19:29;99664.91;;;16.90;67.17
45467;BME280;31212;49.734;8.490;2023-07-02T05:21:57;99674.22;;;16.99;67.11
45467;BME280;31212;49.734;8.490;2023-07-02T05:24:23;99636.28;;;17.09;66.66
45467;BME280;31212;49.734;8.490;2023-07-02T05:26:50;99645.28;;;17.26;66.35
45467;BME280;31212;49.734;8.490;2023-07-02T05:29:17;99630.09;;;17.36;65.67
45467;BME280;31212;49.734;8.490;2023-07-02T05:31:43;99604.44;;;17.42;65.35
45467;BME280;31212;49.734;8.490;2023-07-02T05:34:10;99620.44;;;17.36;65.00
45467;BME280;31212;49.734;8.490;2023-07-02T05:36:37;99622.47;;;17.52;65.15
45467;BME280;31212;49.734;8.490;2023-07-02T05:39:05;99620.03;;;17.47;64.97
45467;BME280;31212;49.734;8.490;2023-07-02T05:41:32;99607.19;;;17.63;64.65
45467;BME280;31212;49.734;8.490;2023-07-02T05:43:58;99595.38;;;17.73;64.05
45467;BME280;31212;49.734;8.490;2023-07-02T05:46:25;99588.72;;;17.64;63.91
45467;BME280;31212;49.734;8.490;2023-07-02T05:48:52;99589.56;;;17.65;64.13
45467;BME280;31212;49.734;8.490;2023-07-02T05:51:21;99608.75;;;17.67;64.13
45467;BME280;31212;49.734;8.490;2023-07-02T05:53:48;99625.84;;;17.77;64.31
45467;BME280;31212;49.734;8.490;2023-07-02T05:56:16;99604.38;;;17.90;63.85
45467;BME280;31212;49.734;8.490;2023-07-02T05:58:44;99596.41;;;17.93;63.86
45467;BME280;31212;49.734;8.490;2023-07-02T06:01:11;99590.31;;;17.92;63.46
45467;BME280;31212;49.734;8.490;2023-07-02T06:03:37;99598.19;;;17.91;63.51
45467;BME280;31212;49.734;8.490;2023-07-02T06:06:04;99613.38;;;18.06;63.52
45467;BME280;31212;49.734;8.490;2023-07-02T06:08:30;99589.44;;;18.14;63.21
45467;BME280;31212;49.734;8.490;2023-07-02T06:10:57;99579.06;;;18.31;62.82
45467;BME280;31212;49.734;8.490;2023-07-02T06:13:25;99573.53;;;18.38;62.42
45467;BME280;31212;49.734;8.490;2023-07-02T06:15:51;99561.66;;;18.49;62.22
45467;BME280;31212;49.734;8.490;2023-07-02T06:18:18;99546.84;;;18.87;61.58
45467;BME280;31212;49.734;8.490;2023-07-02T06:20:45;99505.91;;;18.81;60.65
45467;BME280;31212;49.734;8.490;2023-07-02T06:23:12;99508.03;;;18.93;60.38
45467;BME280;31212;49.734;8.490;2023-07-02T06:25:38;99539.31;;;18.99;60.70
45467;BME280;31212;49.734;8.490;2023-07-02T06:28:05;99503.34;;;19.00;60.26
45467;BME280;31212;49.734;8.490;2023-07-02T06:30:32;99481.16;;;19.06;59.59
45467;BME280;31212;49.734;8.490;2023-07-02T06:32:59;99493.81;;;19.16;59.69
45467;BME280;31212;49.734;8.490;2023-07-02T06:35:25;99479.41;;;19.43;58.98
45467;BME280;31212;49.734;8.490;2023-07-02T06:37:52;99467.19;;;19.59;58.51
45467;BME280;31212;49.734;8.490;2023-07-02T06:40:19;99424.69;;;19.67;57.53
45467;BME280;31212;49.734;8.490;2023-07-02T06:42:46;99442.22;;;19.86;57.72
45467;BME280;31212;49.734;8.490;2023-07-02T06:45:12;99419.13;;;20.08;56.75
45467;BME280;31212;49.734;8.490;2023-07-02T06:47:40;99401.78;;;20.20;56.43
45467;BME280;31212;49.734;8.490;2023-07-02T06:50:07;99391.09;;;20.73;55.83
45467;BME280;31212;49.734;8.490;2023-07-02T06:52:33;99355.59;;;20.94;54.66
45467;BME280;31212;49.734;8.490;2023-07-02T06:55:00;99330.69;;;21.14;53.69
45467;BME280;31212;49.734;8.490;2023-07-02T06:57:26;99347.47;;;21.13;53.55
45467;BME280;31212;49.734;8.490;2023-07-02T06:59:57;99318.22;;;21.32;52.80
45467;BME280;31212;49.734;8.490;2023-07-02T07:02:24;99295.03;;;21.38;51.92
45467;BME280;31212;49.734;8.490;2023-07-02T07:04:52;99322.09;;;21.41;52.41
45467;BME280;31212;49.734;8.490;2023-07-02T07:07:18;99274.28;;;21.31;51.75
45467;BME280;31212;49.734;8.490;2023-07-02T07:09:45;99313.41;;;22.13;51.38
45467;BME280;31212;49.734;8.490;2023-07-02T07:12:11;99228.72;;;22.56;49.35
45467;BME280;31212;49.734;8.490;2023-07-02T07:14:38;99163.00;;;23.79;47.32
45467;BME280;31212;49.734;8.490;2023-07-02T07:17:04;99116.97;;;24.99;44.50
45467;BME280;31212;49.734;8.490;2023-07-02T07:19:31;99096.72;;;25.32;43.24
45467;BME280;31212;49.734;8.490;2023-07-02T07:21:58;99080.75;;;25.99;42.09
45467;BME280;31212;49.734;8.490;2023-07-02T07:24:25;99118.22;;;26.07;41.91
45467;BME280;31212;49.734;8.490;2023-07-02T07:26:51;99051.00;;;26.38;39.49
45467;BME280;31212;49.734;8.490;2023-07-02T07:29:18;99044.53;;;27.13;38.32
45467;BME280;31212;49.734;8.490;2023-07-02T07:31:44;99042.88;;;27.73;37.77
45467;BME280;31212;49.734;8.490;2023-07-02T07:34:11;98986.44;;;27.77;36.83
45467;BME280;31212;49.734;8.490;2023-07-02T07:36:37;98983.22;;;27.44;36.42
45467;BME280;31212;49.734;8.490;2023-07-02T07:39:05;98992.59;;;27.58;36.27
45467;BME280;31212;49.734;8.490;2023-07-02T07:41:32;98974.31;;;27.34;36.07
45467;BME280;31212;49.734;8.490;2023-07-02T07:43:58;98980.13;;;27.49;35.93
45467;BME280;31212;49.734;8.490;2023-07-02T07:46:26;98933.63;;;27.12;35.46
45467;BME280;31212;49.734;8.490;2023-07-02T07:48:52;98954.34;;;28.46;34.55
45467;BME280;31212;49.734;8.490;2023-07-02T07:51:18;98907.00;;;28.76;33.21
45467;BME280;31212;49.734;8.490;2023-07-02T07:53:45;98864.56;;;28.45;32.80
45467;BME280;31212;49.734;8.490;2023-07-02T07:56:13;98875.53;;;28.42;32.94
45467;BME280;31212;49.734;8.490;2023-07-02T07:58:39;98894.19;;;26.96;34.06
45467;BME280;31212;49.734;8.490;2023-07-02T08:01:06;98946.81;;;25.79;35.66
45467;BME280;31212;49.734;8.490;2023-07-02T08:03:32;98985.19;;;25.65;36.61
45467;BME280;31212;49.734;8.490;2023-07-02T08:05:58;98975.88;;;25.27;36.41
45467;BME280;31212;49.734;8.490;2023-07-02T08:08:25;99010.34;;;24.36;37.70
45467;BME280;31212;49.734;8.490;2023-07-02T08:10:51;99079.63;;;23.34;39.63
45467;BME280;31212;49.734;8.490;2023-07-02T08:13:19;99120.28;;;22.82;40.55
45467;BME280;31212;49.734;8.490;2023-07-02T08:15:45;99185.66;;;22.54;41.84
45467;BME280;31212;49.734;8.490;2023-07-02T08:18:13;99203.16;;;22.15;42.60
45467;BME280;31212;49.734;8.490;2023-07-02T08:20:39;99228.88;;;21.84;43.05
45467;BME280;31212;49.734;8.490;2023-07-02T08:23:06;99274.25;;;21.62;43.87
45467;BME280;31212;49.734;8.490;2023-07-02T08:25:32;99253.88;;;23.42;41.95
45467;BME280;31212;49.734;8.490;2023-07-02T08:27:59;99162.06;;;25.46;38.54
45467;BME280;31212;49.734;8.490;2023-07-02T08:30:26;99108.50;;;26.50;36.75
45467;BME280;31212;49.734;8.490;2023-07-02T08:32:53;99097.44;;;25.68;37.44
45467;BME280;31212;49.734;8.490;2023-07-02T08:35:21;99131.91;;;24.78;39.03
45467;BME280;31212;49.734;8.490;2023-07-02T08:37:47;99207.13;;;25.59;39.50
45467;BME280;31212;49.734;8.490;2023-07-02T08:40:16;99076.88;;;26.14;36.64
45467;BME280;31212;49.734;8.490;2023-07-02T08:42:44;99093.53;;;26.16;36.75
45467;BME280;31212;49.734;8.490;2023-07-02T08:45:12;99108.72;;;25.82;37.41
45467;BME280;31212;49.734;8.490;2023-07-02T08:47:41;99089.09;;;24.47;38.55
45467;BME280;31212;49.734;8.490;2023-07-02T08:50:08;99177.16;;;24.04;40.11
45467;BME280;31212;49.734;8.490;2023-07-02T08:52:34;99226.47;;;25.03;39.81
45467;BME280;31212;49.734;8.490;2023-07-02T08:55:01;99151.03;;;26.29;37.68
45467;BME280;31212;49.734;8.490;2023-07-02T08:57:27;99055.19;;;27.54;35.05
45467;BME280;31212;49.734;8.490;2023-07-02T08:59:54;98983.72;;;27.28;34.27
45467;BME280;31212;49.734;8.490;2023-07-02T09:02:30;99039.00;;;25.46;36.62
45467;BME280;31212;49.734;8.490;2023-07-02T09:04:59;99112.69;;;24.63;38.69
45467;BME280;31212;49.734;8.490;2023-07-02T09:07:26;99180.22;;;24.34;39.79
45467;BME280;31212;49.734;8.490;2023-07-02T09:09:52;99193.44;;;25.30;38.84
45467;BME280;31212;49.734;8.490;2023-07-02T09:12:24;99143.31;;;25.25;37.97
45467;BME280;31212;49.734;8.490;2023-07-02T09:14:55;99115.84;;;24.68;38.14
45467;BME280;31212;49.734;8.490;2023-07-02T09:17:27;99167.47;;;24.64;38.93
45467;BME280;31212;49.734;8.490;2023-07-02T09:19:54;99136.59;;;25.55;37.62
45467;BME280;31212;49.734;8.490;2023-07-02T09:22:22;99109.59;;;27.42;35.34
45467;BME280;31212;49.734;8.490;2023-07-02T09:24:53;99011.66;;;26.41;34.70
45467;BME280;31212;49.734;8.490;2023-07-02T09:27:20;99055.38;;;26.06;35.81
45467;BME280;31212;49.734;8.490;2023-07-02T09:29:50;99103.34;;;25.61;36.75
45467;BME280;31212;49.734;8.490;2023-07-02T09:32:24;99131.94;;;24.53;38.27
45467;BME280;31212;49.734;8.490;2023-07-02T09:34:53;99181.03;;;23.87;39.65
45467;BME280;31212;49.734;8.490;2023-07-02T09:37:19;99178.63;;;23.58;39.72
45467;BME280;31212;49.734;8.490;2023-07-02T09:39:49;99206.31;;;24.04;39.87
45467;BME280;31212;49.734;8.490;2023-07-02T09:42:16;99168.84;;;23.84;39.53
45467;BME280;31212;49.734;8.490;2023-07-02T09:44:45;99187.50;;;23.69;39.86
45467;BME280;31212;49.734;8.490;2023-07-02T09:47:13;99174.38;;;23.55;39.66
45467;BME280;31212;49.734;8.490;2023-07-02T09:49:45;99170.19;;;24.51;38.63
45467;BME280;31212;49.734;8.490;2023-07-02T09:52:15;99192.91;;;24.18;39.34
45467;BME280;31212;49.734;8.490;2023-07-02T09:54:45;99218.66;;;23.79;40.09
45467;BME280;31212;49.734;8.490;2023-07-02T09:57:13;99225.28;;;23.47;40.59
45467;BME280;31212;49.734;8.490;2023-07-02T09:59:40;99220.63;;;23.38;40.51
45467;BME280;31212;49.734;8.490;2023-07-02T10:02:08;99256.03;;;24.26;40.07
45467;BME280;31212;49.734;8.490;2023-07-02T10:04:45;99185.13;;;26.35;37.09
45467;BME280;31212;49.734;8.490;2023-07-02T10:07:13;99054.34;;;25.42;36.20
45467;BME280;31212;49.734;8.490;2023-07-02T10:09:51;99056.28;;;25.06;36.59
45467;BME280;31212;49.734;8.490;2023-07-02T10:12:20;99060.25;;;25.90;35.73
45467;BME280;31212;49.734;8.490;2023-07-02T10:14:48;99036.72;;;26.69;34.30
45467;BME280;31212;49.734;8.490;2023-07-02T10:17:33;99017.69;;;26.43;34.62
45467;BME280;31212;49.734;8.490;2023-07-02T10:20:02;99020.56;;;25.77;35.10
45467;BME280;31212;49.734;8.490;2023-07-02T10:22:42;99056.00;;;25.55;36.06
45467;BME280;31212;49.734;8.490;2023-07-02T10:25:08;99030.38;;;25.65;35.33
45467;BME280;31212;49.734;8.490;2023-07-02T10:27:37;99040.66;;;25.91;35.35
45467;BME280;31212;49.734;8.490;2023-07-02T10:30:05;99010.00;;;25.86;35.08
45467;BME280;31212;49.734;8.490;2023-07-02T10:32:33;99002.66;;;25.79;34.67
45467;BME280;31212;49.734;8.490;2023-07-02T10:35:00;98939.97;;;25.32;34.30
45467;BME280;31212;49.734;8.490;2023-07-02T10:37:35;99022.09;;;25.47;35.34
45467;BME280;31212;49.734;8.490;2023-07-02T10:40:02;98993.41;;;24.84;35.40
45467;BME280;31212;49.734;8.490;2023-07-02T10:42:30;99029.91;;;24.35;36.78
45467;BME280;31212;49.734;8.490;2023-07-02T10:44:59;99039.13;;;24.18;36.84
45467;BME280;31212;49.734;8.490;2023-07-02T10:47:28;99082.56;;;24.28;37.36
45467;BME280;31212;49.734;8.490;2023-07-02T10:49:54;99098.34;;;25.90;35.87
45467;BME280;31212;49.734;8.490;2023-07-02T10:52:20;99016.63;;;27.78;33.04
45467;BME280;31212;49.734;8.490;2023-07-02T10:54:47;98952.72;;;29.18;31.52
45467;BME280;31212;49.734;8.490;2023-07-02T10:57:15;98916.81;;;29.03;30.94
45467;BME280;31212;49.734;8.490;2023-07-02T10:59:45;98925.22;;;27.17;32.44
45467;BME280;31212;49.734;8.490;2023-07-02T11:02:13;98929.03;;;25.58;34.19
45467;BME280;31212;49.734;8.490;2023-07-02T11:04:39;98987.03;;;24.87;35.47
45467;BME280;31212;49.734;8.490;2023-07-02T11:07:06;99033.09;;;25.42;35.68
45467;BME280;31212;49.734;8.490;2023-07-02T11:09:33;99005.22;;;27.46;33.02
45467;BME280;31212;49.734;8.490;2023-07-02T11:12:00;98960.88;;;28.71;31.30
45467;BME280;31212;49.734;8.490;2023-07-02T11:14:28;98887.94;;;28.61;30.57
45467;BME280;31212;49.734;8.490;2023-07-02T11:16:55;98916.84;;;27.70;31.85
45467;BME280;31212;49.734;8.490;2023-07-02T11:19:23;98950.44;;;26.41;33.48
45467;BME280;31212;49.734;8.490;2023-07-02T11:21:51;99036.09;;;27.59;33.55
45467;BME280;31212;49.734;8.490;2023-07-02T11:24:26;98958.63;;;28.66;31.58
45467;BME280;31212;49.734;8.490;2023-07-02T11:26:53;98941.47;;;29.79;30.63
45467;BME280;31212;49.734;8.490;2023-07-02T11:29:23;98850.72;;;31.06;28.50
45467;BME280;31212;49.734;8.490;2023-07-02T11:31:50;98774.16;;;30.27;28.37
45467;BME280;31212;49.734;8.490;2023-07-02T11:34:17;98799.41;;;28.38;30.02
45467;BME280;31212;49.734;8.490;2023-07-02T11:36:46;98885.97;;;27.09;32.07
45467;BME280;31212;49.734;8.490;2023-07-02T11:39:12;98954.19;;;26.60;33.50
45467;BME280;31212;49.734;8.490;2023-07-02T11:41:42;98941.97;;;26.26;33.66
45467;BME280;31212;49.734;8.490;2023-07-02T11:44:09;98961.31;;;25.86;33.82
45467;BME280;31212;49.734;8.490;2023-07-02T11:46:35;98993.28;;;25.63;34.65
45467;BME280;31212;49.734;8.490;2023-07-02T11:49:03;98982.50;;;25.21;34.66
45467;BME280;31212;49.734;8.490;2023-07-02T11:51:30;98980.41;;;24.81;34.98
45467;BME280;31212;49.734;8.490;2023-07-02T11:53:58;99005.97;;;24.93;35.24
45467;BME280;31212;49.734;8.490;2023-07-02T11:56:24;99003.00;;;25.30;34.65
45467;BME280;31212;49.734;8.490;2023-07-02T11:58:51;99022.53;;;25.96;34.47
45467;BME280;31212;49.734;8.490;2023-07-02T12:01:17;98981.13;;;25.82;34.10
45467;BME280;31212;49.734;8.490;2023-07-02T12:03:44;98994.53;;;26.13;33.68
45467;BME280;31212;49.734;8.490;2023-07-02T12:06:11;98999.75;;;26.14;33.98
45467;BME280;31212;49.734;8.490;2023-07-02T12:08:37;98940.22;;;25.73;33.51
45467;BME280;31212;49.734;8.490;2023-07-02T12:11:05;98936.09;;;25.48;33.71
45467;BME280;31212;49.734;8.490;2023-07-02T12:13:31;98991.31;;;25.44;34.59
45467;BME280;31212;49.734;8.490;2023-07-02T12:15:58;99040.94;;;26.20;34.76
45467;BME280;31212;49.734;8.490;2023-07-02T12:18:24;98985.84;;;26.94;33.25
45467;BME280;31212;49.734;8.490;2023-07-02T12:20:50;98947.94;;;26.71;32.65
45467;BME280;31212;49.734;8.490;2023-07-02T12:23:17;98947.03;;;26.29;33.17
45467;BME280;31212;49.734;8.490;2023-07-02T12:25:43;98987.59;;;26.43;33.69
45467;BME280;31212;49.734;8.490;2023-07-02T12:28:11;98986.00;;;25.98;33.87
45467;BME280;31212;49.734;8.490;2023-07-02T12:30:38;98979.81;;;25.76;34.26
45467;BME280;31212;49.734;8.490;2023-07-02T12:33:05;99004.53;;;25.88;34.27
45467;BME280;31212;49.734;8.490;2023-07-02T12:35:31;98998.09;;;25.69;34.33
45467;BME280;31212;49.734;8.490;2023-07-02T12:37:57;99018.88;;;26.29;34.15
45467;BME280;31212;49.734;8.490;2023-07-02T12:40:24;99020.28;;;27.26;33.40
45467;BME280;31212;49.734;8.490;2023-07-02T12:42:50;98877.25;;;27.07;31.22
45467;BME280;31212;49.734;8.490;2023-07-02T12:45:18;98854.13;;;26.47;31.88
45467;BME280;31212;49.734;8.490;2023-07-02T12:47:45;98904.72;;;26.26;32.52
45467;BME280;31212;49.734;8.490;2023-07-02T12:50:11;98924.44;;;25.81;33.29
45467;BME280;31212;49.734;8.490;2023-07-02T12:52:38;98915.44;;;25.73;32.97
45467;BME280;31212;49.734;8.490;2023-07-02T12:55:05;98991.94;;;25.69;34.24
45467;BME280;31212;49.734;8.490;2023-07-02T12:57:31;98965.72;;;25.21;34.55
45467;BME280;31212;49.734;8.490;2023-07-02T12:59:58;98974.13;;;24.71;34.79